sensor_id;sensor_type;location;lat;lon;timestamp;P1;durP1;ratioP1;P2;durP2;ratioP2
49722;SDS011;43484;43.608;1.458;2022-10-22T00:01:00;9.52;;;1.13;;
49722;SDS011;43484;43.608;1.458;2022-10-22T00:03:26;9.55;;;2.20;;
49722;SDS011;43484;43.608;1.458;2022-10-22T00:05:53;6.93;;;1.55;;
49722;SDS011;43484;43.608;1.458;2022-10-22T00:08:19;6.43;;;1.63;;
49722;SDS011;43484;43.608;1.458;2022-10-22T00:10:46;4.97;;;1.30;;
49722;SDS011;43484;43.608;1.458;2022-10-22T00:13:13;7.38;;;1.83;;
49722;SDS011;43484;43.608;1.458;2022-10-22T00:15:39;4.60;;;1.55;;
49722;SDS011;43484;43.608;1.458;2022-10-22T00:18:06;4.13;;;1.38;;
49722;SDS011;43484;43.608;1.458;2022-10-22T00:20:32;5.55;;;1.42;;
49722;SDS011;43484;43.608;1.458;2022-10-22T00:22:59;9.55;;;1.58;;
49722;SDS011;43484;43.608;1.458;2022-10-22T00:25:26;5.32;;;1.40;;
49722;SDS011;43484;43.608;1.458;2022-10-22T00:27:52;7.93;;;1.33;;
49722;SDS011;43484;43.608;1.458;2022-10-22T00:30:19;5.78;;;1.20;;
49722;SDS011;43484;43.608;1.458;2022-10-22T00:32:45;4.38;;;1.30;;
49722;SDS011;43484;43.608;1.458;2022-10-22T00:35:12;4.88;;;1.30;;
49722;SDS011;43484;43.608;1.458;2022-10-22T00:37:38;3.20;;;0.98;;
49722;SDS011;43484;43.608;1.458;2022-10-22T00:40:05;4.65;;;0.90;;
49722;SDS011;43484;43.608;1.458;2022-10-22T00:42:32;5.40;;;1.20;;
49722;SDS011;43484;43.608;1.458;2022-10-22T00:45:04;6.63;;;1.55;;
49722;SDS011;43484;43.608;1.458;2022-10-22T00:47:49;6.30;;;1.48;;
49722;SDS011;43484;43.608;1.458;2022-10-22T00:50:20;1.48;;;0.80;;
49722;SDS011;43484;43.608;1.458;2022-10-22T00:52:48;6.35;;;1.00;;
49722;SDS011;43484;43.608;1.458;2022-10-22T00:55:15;4.95;;;1.42;;
49722;SDS011;43484;43.608;1.458;2022-10-22T00:57:43;6.78;;;1.15;;
49722;SDS011;43484;43.608;1.458;2022-10-22T01:00:11;5.10;;;1.33;;
49722;SDS011;43484;43.608;1.458;2022-10-22T01:02:38;5.25;;;1.10;;
49722;SDS011;43484;43.608;1.458;2022-10-22T01:05:06;6.60;;;1.40;;
49722;SDS011;43484;43.608;1.458;2022-10-22T01:07:34;5.05;;;1.42;;
49722;SDS011;43484;43.608;1.458;2022-10-22T01:15:22;4.63;;;1.10;;
49722;SDS011;43484;43.608;1.458;2022-10-22T01:29:17;6.68;;;1.55;;
49722;SDS011;43484;43.608;1.458;2022-10-22T01:32:02;8.00;;;1.60;;
49722;SDS011;43484;43.608;1.458;2022-10-22T01:34:33;8.35;;;1.70;;
49722;SDS011;43484;43.608;1.458;2022-10-22T01:37:01;4.80;;;1.45;;
49722;SDS011;43484;43.608;1.458;2022-10-22T01:39:28;7.97;;;1.23;;
49722;SDS011;43484;43.608;1.458;2022-10-22T01:41:56;5.53;;;1.10;;
49722;SDS011;43484;43.608;1.458;2022-10-22T01:44:30;7.20;;;1.35;;
49722;SDS011;43484;43.608;1.458;2022-10-22T01:47:07;6.60;;;1.00;;
49722;SDS011;43484;43.608;1.458;2022-10-22T01:57:47;3.70;;;1.08;;
49722;SDS011;43484;43.608;1.458;2022-10-22T02:00:17;7.28;;;1.48;;
49722;SDS011;43484;43.608;1.458;2022-10-22T02:08:20;4.43;;;1.02;;
49722;SDS011;43484;43.608;1.458;2022-10-22T02:10:54;11.18;;;1.58;;
49722;SDS011;43484;43.608;1.458;2022-10-22T02:13:25;8.65;;;1.85;;
49722;SDS011;43484;43.608;1.458;2022-10-22T02:15:55;7.47;;;1.58;;
49722;SDS011;43484;43.608;1.458;2022-10-22T02:18:25;15.10;;;3.30;;
49722;SDS011;43484;43.608;1.458;2022-10-22T02:20:54;4.50;;;1.30;;
49722;SDS011;43484;43.608;1.458;2022-10-22T02:23:21;8.80;;;1.85;;
49722;SDS011;43484;43.608;1.458;2022-10-22T02:25:50;10.63;;;1.80;;
49722;SDS011;43484;43.608;1.458;2022-10-22T02:28:28;5.07;;;1.98;;
49722;SDS011;43484;43.608;1.458;2022-10-22T02:31:09;8.30;;;2.05;;
49722;SDS011;43484;43.608;1.458;2022-10-22T02:33:46;5.13;;;1.40;;
49722;SDS011;43484;43.608;1.458;2022-10-22T02:36:16;3.10;;;1.40;;
49722;SDS011;43484;43.608;1.458;2022-10-22T02:38:44;6.60;;;1.98;;
49722;SDS011;43484;43.608;1.458;2022-10-22T02:41:13;6.38;;;1.95;;
49722;SDS011;43484;43.608;1.458;2022-10-22T02:43:42;7.72;;;1.60;;
49722;SDS011;43484;43.608;1.458;2022-10-22T02:46:11;8.50;;;2.13;;
49722;SDS011;43484;43.608;1.458;2022-10-22T02:48:37;5.28;;;2.25;;
49722;SDS011;43484;43.608;1.458;2022-10-22T02:51:04;5.15;;;1.40;;
49722;SDS011;43484;43.608;1.458;2022-10-22T02:53:31;4.53;;;1.33;;
49722;SDS011;43484;43.608;1.458;2022-10-22T02:55:58;5.00;;;1.88;;
49722;SDS011;43484;43.608;1.458;2022-10-22T02:58:25;8.52;;;2.13;;
49722;SDS011;43484;43.608;1.458;2022-10-22T03:00:51;4.82;;;1.23;;
49722;SDS011;43484;43.608;1.458;2022-10-22T03:03:18;6.00;;;1.45;;
49722;SDS011;43484;43.608;1.458;2022-10-22T03:05:45;7.38;;;1.85;;
49722;SDS011;43484;43.608;1.458;2022-10-22T03:08:11;13.25;;;2.22;;
49722;SDS011;43484;43.608;1.458;2022-10-22T03:10:38;6.40;;;2.35;;
49722;SDS011;43484;43.608;1.458;2022-10-22T03:13:04;10.85;;;1.92;;
49722;SDS011;43484;43.608;1.458;2022-10-22T03:15:31;6.10;;;1.73;;
49722;SDS011;43484;43.608;1.458;2022-10-22T03:17:57;7.57;;;1.50;;
49722;SDS011;43484;43.608;1.458;2022-10-22T03:20:24;5.35;;;1.27;;
49722;SDS011;43484;43.608;1.458;2022-10-22T03:22:51;10.40;;;2.15;;
49722;SDS011;43484;43.608;1.458;2022-10-22T03:25:19;6.70;;;1.98;;
49722;SDS011;43484;43.608;1.458;2022-10-22T03:27:51;10.95;;;2.17;;
49722;SDS011;43484;43.608;1.458;2022-10-22T03:30:19;6.70;;;1.60;;
49722;SDS011;43484;43.608;1.458;2022-10-22T03:32:46;13.32;;;2.40;;
49722;SDS011;43484;43.608;1.458;2022-10-22T03:35:12;7.78;;;2.47;;
49722;SDS011;43484;43.608;1.458;2022-10-22T03:37:39;5.13;;;2.08;;
49722;SDS011;43484;43.608;1.458;2022-10-22T03:40:06;5.65;;;1.90;;
49722;SDS011;43484;43.608;1.458;2022-10-22T03:42:34;7.20;;;1.98;;
49722;SDS011;43484;43.608;1.458;2022-10-22T03:45:03;4.13;;;1.52;;
49722;SDS011;43484;43.608;1.458;2022-10-22T03:47:30;6.05;;;2.22;;
49722;SDS011;43484;43.608;1.458;2022-10-22T03:49:56;5.25;;;1.83;;
49722;SDS011;43484;43.608;1.458;2022-10-22T03:52:23;9.10;;;2.20;;
49722;SDS011;43484;43.608;1.458;2022-10-22T03:54:50;5.30;;;1.35;;
49722;SDS011;43484;43.608;1.458;2022-10-22T03:57:16;4.85;;;2.33;;
49722;SDS011;43484;43.608;1.458;2022-10-22T03:59:44;5.70;;;1.77;;
49722;SDS011;43484;43.608;1.458;2022-10-22T04:02:12;6.82;;;1.92;;
49722;SDS011;43484;43.608;1.458;2022-10-22T04:04:39;7.88;;;1.70;;
49722;SDS011;43484;43.608;1.458;2022-10-22T04:07:06;6.13;;;1.63;;
49722;SDS011;43484;43.608;1.458;2022-10-22T04:09:33;7.75;;;1.88;;
49722;SDS011;43484;43.608;1.458;2022-10-22T04:12:00;10.32;;;2.08;;
49722;SDS011;43484;43.608;1.458;2022-10-22T04:14:27;4.93;;;1.13;;
49722;SDS011;43484;43.608;1.458;2022-10-22T04:16:54;7.53;;;1.55;;
49722;SDS011;43484;43.608;1.458;2022-10-22T04:19:20;7.57;;;1.48;;
49722;SDS011;43484;43.608;1.458;2022-10-22T04:21:47;4.22;;;1.38;;
49722;SDS011;43484;43.608;1.458;2022-10-22T04:24:14;10.68;;;2.38;;
49722;SDS011;43484;43.608;1.458;2022-10-22T04:26:41;7.43;;;1.98;;
49722;SDS011;43484;43.608;1.458;2022-10-22T04:29:08;5.53;;;1.80;;
49722;SDS011;43484;43.608;1.458;2022-10-22T04:31:41;11.32;;;2.25;;
49722;SDS011;43484;43.608;1.458;2022-10-22T04:34:07;11.40;;;2.33;;
49722;SDS011;43484;43.608;1.458;2022-10-22T04:36:34;8.82;;;2.10;;
49722;SDS011;43484;43.608;1.458;2022-10-22T04:39:00;4.60;;;1.42;;
49722;SDS011;43484;43.608;1.458;2022-10-22T04:41:29;4.00;;;1.50;;
49722;SDS011;43484;43.608;1.458;2022-10-22T04:43:58;4.78;;;1.50;;
49722;SDS011;43484;43.608;1.458;2022-10-22T04:46:26;9.98;;;2.67;;
49722;SDS011;43484;43.608;1.458;2022-10-22T04:48:53;10.73;;;1.75;;
49722;SDS011;43484;43.608;1.458;2022-10-22T04:51:21;5.95;;;1.63;;
49722;SDS011;43484;43.608;1.458;2022-10-22T04:53:49;8.60;;;1.48;;
49722;SDS011;43484;43.608;1.458;2022-10-22T04:56:19;6.95;;;1.95;;
49722;SDS011;43484;43.608;1.458;2022-10-22T04:58:47;8.77;;;1.50;;
49722;SDS011;43484;43.608;1.458;2022-10-22T05:01:23;5.55;;;2.10;;
49722;SDS011;43484;43.608;1.458;2022-10-22T05:03:53;6.70;;;2.03;;
49722;SDS011;43484;43.608;1.458;2022-10-22T05:06:21;6.15;;;2.08;;
49722;SDS011;43484;43.608;1.458;2022-10-22T05:08:59;13.75;;;2.45;;
49722;SDS011;43484;43.608;1.458;2022-10-22T05:11:30;3.60;;;1.50;;
49722;SDS011;43484;43.608;1.458;2022-10-22T05:13:59;4.80;;;1.92;;
49722;SDS011;43484;43.608;1.458;2022-10-22T05:16:30;5.50;;;1.63;;
49722;SDS011;43484;43.608;1.458;2022-10-22T05:18:58;5.35;;;1.50;;
49722;SDS011;43484;43.608;1.458;2022-10-22T05:21:25;6.22;;;1.70;;
49722;SDS011;43484;43.608;1.458;2022-10-22T05:23:53;6.30;;;1.42;;
49722;SDS011;43484;43.608;1.458;2022-10-22T05:26:21;4.75;;;1.65;;
49722;SDS011;43484;43.608;1.458;2022-10-22T05:28:49;6.75;;;1.70;;
49722;SDS011;43484;43.608;1.458;2022-10-22T05:31:16;8.38;;;1.90;;
49722;SDS011;43484;43.608;1.458;2022-10-22T05:33:44;12.43;;;1.85;;
49722;SDS011;43484;43.608;1.458;2022-10-22T05:36:12;5.60;;;1.88;;
49722;SDS011;43484;43.608;1.458;2022-10-22T05:38:40;5.60;;;1.77;;
49722;SDS011;43484;43.608;1.458;2022-10-22T05:41:07;7.40;;;2.30;;
49722;SDS011;43484;43.608;1.458;2022-10-22T05:43:36;5.93;;;1.98;;
49722;SDS011;43484;43.608;1.458;2022-10-22T05:46:08;8.15;;;1.88;;
49722;SDS011;43484;43.608;1.458;2022-10-22T05:48:48;7.10;;;1.52;;
49722;SDS011;43484;43.608;1.458;2022-10-22T05:51:16;6.57;;;2.80;;
49722;SDS011;43484;43.608;1.458;2022-10-22T05:53:44;5.63;;;1.52;;
49722;SDS011;43484;43.608;1.458;2022-10-22T05:56:12;8.00;;;1.80;;
49722;SDS011;43484;43.608;1.458;2022-10-22T05:58:40;6.22;;;2.03;;
49722;SDS011;43484;43.608;1.458;2022-10-22T06:01:14;4.32;;;1.88;;
49722;SDS011;43484;43.608;1.458;2022-10-22T06:03:51;6.28;;;2.08;;
49722;SDS011;43484;43.608;1.458;2022-10-22T06:06:20;5.75;;;1.88;;
49722;SDS011;43484;43.608;1.458;2022-10-22T06:08:52;17.40;;;8.52;;
49722;SDS011;43484;43.608;1.458;2022-10-22T06:11:21;3.45;;;2.22;;
49722;SDS011;43484;43.608;1.458;2022-10-22T06:13:48;6.15;;;1.55;;
49722;SDS011;43484;43.608;1.458;2022-10-22T06:16:16;10.00;;;2.33;;
49722;SDS011;43484;43.608;1.458;2022-10-22T06:18:42;13.98;;;2.15;;
49722;SDS011;43484;43.608;1.458;2022-10-22T06:21:10;10.55;;;1.75;;
49722;SDS011;43484;43.608;1.458;2022-10-22T06:23:39;8.40;;;2.00;;
49722;SDS011;43484;43.608;1.458;2022-10-22T06:26:06;12.70;;;2.42;;
49722;SDS011;43484;43.608;1.458;2022-10-22T06:28:34;7.68;;;1.70;;
49722;SDS011;43484;43.608;1.458;2022-10-22T06:31:01;9.57;;;2.63;;
49722;SDS011;43484;43.608;1.458;2022-10-22T06:33:30;14.70;;;3.13;;
49722;SDS011;43484;43.608;1.458;2022-10-22T06:36:05;10.20;;;2.28;;
49722;SDS011;43484;43.608;1.458;2022-10-22T06:38:33;13.23;;;2.15;;
49722;SDS011;43484;43.608;1.458;2022-10-22T06:41:03;8.32;;;2.28;;
49722;SDS011;43484;43.608;1.458;2022-10-22T06:43:32;14.23;;;3.03;;
49722;SDS011;43484;43.608;1.458;2022-10-22T06:45:59;10.70;;;2.90;;
49722;SDS011;43484;43.608;1.458;2022-10-22T06:48:28;9.65;;;2.58;;
49722;SDS011;43484;43.608;1.458;2022-10-22T06:50:55;7.88;;;2.58;;
49722;SDS011;43484;43.608;1.458;2022-10-22T06:53:27;10.65;;;2.70;;
49722;SDS011;43484;43.608;1.458;2022-10-22T06:55:54;8.80;;;2.10;;
49722;SDS011;43484;43.608;1.458;2022-10-22T06:58:20;8.57;;;2.88;;
49722;SDS011;43484;43.608;1.458;2022-10-22T07:00:47;7.10;;;1.88;;
49722;SDS011;43484;43.608;1.458;2022-10-22T07:03:14;18.20;;;2.97;;
49722;SDS011;43484;43.608;1.458;2022-10-22T07:05:41;12.02;;;2.30;;
49722;SDS011;43484;43.608;1.458;2022-10-22T07:08:07;15.82;;;3.08;;
49722;SDS011;43484;43.608;1.458;2022-10-22T07:10:34;9.80;;;2.88;;
49722;SDS011;43484;43.608;1.458;2022-10-22T07:13:01;6.65;;;2.30;;
49722;SDS011;43484;43.608;1.458;2022-10-22T07:15:27;8.43;;;2.92;;
49722;SDS011;43484;43.608;1.458;2022-10-22T07:17:54;7.72;;;2.75;;
49722;SDS011;43484;43.608;1.458;2022-10-22T07:20:20;12.63;;;2.67;;
49722;SDS011;43484;43.608;1.458;2022-10-22T07:22:47;7.70;;;2.45;;
49722;SDS011;43484;43.608;1.458;2022-10-22T07:25:14;7.47;;;2.83;;
49722;SDS011;43484;43.608;1.458;2022-10-22T07:27:40;10.55;;;3.45;;
49722;SDS011;43484;43.608;1.458;2022-10-22T07:30:07;10.00;;;3.05;;
49722;SDS011;43484;43.608;1.458;2022-10-22T07:32:34;9.95;;;2.78;;
49722;SDS011;43484;43.608;1.458;2022-10-22T07:35:02;8.45;;;3.15;;
49722;SDS011;43484;43.608;1.458;2022-10-22T07:37:29;14.20;;;2.97;;
49722;SDS011;43484;43.608;1.458;2022-10-22T07:39:56;11.10;;;3.03;;
49722;SDS011;43484;43.608;1.458;2022-10-22T07:42:29;9.52;;;2.60;;
49722;SDS011;43484;43.608;1.458;2022-10-22T07:45:00;4.90;;;2.25;;
49722;SDS011;43484;43.608;1.458;2022-10-22T07:47:28;5.03;;;2.13;;
49722;SDS011;43484;43.608;1.458;2022-10-22T07:49:54;7.65;;;1.92;;
49722;SDS011;43484;43.608;1.458;2022-10-22T07:52:20;9.27;;;1.80;;
49722;SDS011;43484;43.608;1.458;2022-10-22T07:54:47;7.18;;;2.47;;
49722;SDS011;43484;43.608;1.458;2022-10-22T07:57:14;8.13;;;2.42;;
49722;SDS011;43484;43.608;1.458;2022-10-22T07:59:40;15.07;;;2.50;;
49722;SDS011;43484;43.608;1.458;2022-10-22T08:02:08;7.95;;;2.45;;
49722;SDS011;43484;43.608;1.458;2022-10-22T08:04:36;7.85;;;2.65;;
49722;SDS011;43484;43.608;1.458;2022-10-22T08:07:03;6.95;;;1.85;;
49722;SDS011;43484;43.608;1.458;2022-10-22T08:09:30;7.30;;;2.35;;
49722;SDS011;43484;43.608;1.458;2022-10-22T08:11:56;11.57;;;2.20;;
49722;SDS011;43484;43.608;1.458;2022-10-22T08:14:23;8.23;;;2.30;;
49722;SDS011;43484;43.608;1.458;2022-10-22T08:16:49;8.27;;;3.15;;
49722;SDS011;43484;43.608;1.458;2022-10-22T08:19:16;8.93;;;1.80;;
49722;SDS011;43484;43.608;1.458;2022-10-22T08:21:44;8.55;;;1.63;;
49722;SDS011;43484;43.608;1.458;2022-10-22T08:24:11;9.23;;;2.75;;
49722;SDS011;43484;43.608;1.458;2022-10-22T08:26:38;9.18;;;2.15;;
49722;SDS011;43484;43.608;1.458;2022-10-22T08:29:05;6.60;;;2.03;;
49722;SDS011;43484;43.608;1.458;2022-10-22T08:31:33;7.90;;;2.25;;
49722;SDS011;43484;43.608;1.458;2022-10-22T08:34:00;6.43;;;1.80;;
49722;SDS011;43484;43.608;1.458;2022-10-22T08:36:26;6.43;;;1.83;;
49722;SDS011;43484;43.608;1.458;2022-10-22T08:38:53;12.38;;;2.22;;
49722;SDS011;43484;43.608;1.458;2022-10-22T08:41:21;10.15;;;1.75;;
49722;SDS011;43484;43.608;1.458;2022-10-22T08:49:19;4.88;;;1.70;;
49722;SDS011;43484;43.608;1.458;2022-10-22T08:51:48;8.50;;;1.92;;
49722;SDS011;43484;43.608;1.458;2022-10-22T09:02:11;6.95;;;1.95;;
49722;SDS011;43484;43.608;1.458;2022-10-22T09:07:39;5.00;;;1.23;;
49722;SDS011;43484;43.608;1.458;2022-10-22T09:10:10;9.35;;;2.08;;
49722;SDS011;43484;43.608;1.458;2022-10-22T09:12:38;5.38;;;1.83;;
49722;SDS011;43484;43.608;1.458;2022-10-22T09:15:05;7.88;;;1.75;;
49722;SDS011;43484;43.608;1.458;2022-10-22T09:17:38;13.70;;;2.10;;
49722;SDS011;43484;43.608;1.458;2022-10-22T09:20:19;7.18;;;1.65;;
49722;SDS011;43484;43.608;1.458;2022-10-22T09:25:45;6.90;;;1.52;;
49722;SDS011;43484;43.608;1.458;2022-10-22T09:28:12;7.55;;;1.80;;
49722;SDS011;43484;43.608;1.458;2022-10-22T09:30:39;6.38;;;1.58;;
49722;SDS011;43484;43.608;1.458;2022-10-22T09:38:11;8.45;;;1.20;;
49722;SDS011;43484;43.608;1.458;2022-10-22T09:40:59;5.80;;;1.33;;
49722;SDS011;43484;43.608;1.458;2022-10-22T09:43:29;5.75;;;1.13;;
49722;SDS011;43484;43.608;1.458;2022-10-22T09:46:00;5.22;;;1.30;;
49722;SDS011;43484;43.608;1.458;2022-10-22T09:48:31;6.95;;;1.50;;
49722;SDS011;43484;43.608;1.458;2022-10-22T09:53:37;13.82;;;1.67;;
49722;SDS011;43484;43.608;1.458;2022-10-22T09:58:55;10.35;;;1.77;;
49722;SDS011;43484;43.608;1.458;2022-10-22T10:01:24;3.28;;;1.25;;
49722;SDS011;43484;43.608;1.458;2022-10-22T10:03:53;8.02;;;1.45;;
49722;SDS011;43484;43.608;1.458;2022-10-22T10:06:21;7.20;;;1.25;;
49722;SDS011;43484;43.608;1.458;2022-10-22T10:08:48;4.00;;;0.90;;
49722;SDS011;43484;43.608;1.458;2022-10-22T10:11:25;3.10;;;1.08;;
49722;SDS011;43484;43.608;1.458;2022-10-22T10:16:56;4.05;;;1.13;;
49722;SDS011;43484;43.608;1.458;2022-10-22T10:22:52;9.00;;;1.48;;
49722;SDS011;43484;43.608;1.458;2022-10-22T10:34:30;6.72;;;0.90;;
49722;SDS011;43484;43.608;1.458;2022-10-22T10:50:35;6.22;;;1.33;;
49722;SDS011;43484;43.608;1.458;2022-10-22T11:01:39;7.10;;;1.77;;
49722;SDS011;43484;43.608;1.458;2022-10-22T11:06:49;4.57;;;1.25;;
49722;SDS011;43484;43.608;1.458;2022-10-22T11:09:27;6.10;;;1.30;;
49722;SDS011;43484;43.608;1.458;2022-10-22T11:12:00;6.00;;;1.40;;
49722;SDS011;43484;43.608;1.458;2022-10-22T11:14:38;6.55;;;1.30;;
49722;SDS011;43484;43.608;1.458;2022-10-22T11:17:11;4.60;;;1.17;;
49722;SDS011;43484;43.608;1.458;2022-10-22T11:19:49;6.15;;;1.25;;
49722;SDS011;43484;43.608;1.458;2022-10-22T11:24:55;5.15;;;1.30;;
49722;SDS011;43484;43.608;1.458;2022-10-22T11:27:38;6.68;;;1.52;;
49722;SDS011;43484;43.608;1.458;2022-10-22T11:30:16;11.65;;;1.25;;
49722;SDS011;43484;43.608;1.458;2022-10-22T11:32:45;7.57;;;1.45;;
49722;SDS011;43484;43.608;1.458;2022-10-22T11:35:19;10.30;;;1.50;;
49722;SDS011;43484;43.608;1.458;2022-10-22T11:37:51;9.18;;;1.90;;
49722;SDS011;43484;43.608;1.458;2022-10-22T11:40:43;10.32;;;2.03;;
49722;SDS011;43484;43.608;1.458;2022-10-22T11:51:51;19.00;;;3.47;;
49722;SDS011;43484;43.608;1.458;2022-10-22T11:54:41;15.77;;;3.38;;
49722;SDS011;43484;43.608;1.458;2022-10-22T11:59:43;16.30;;;2.97;;
49722;SDS011;43484;43.608;1.458;2022-10-22T12:02:30;10.35;;;2.40;;
49722;SDS011;43484;43.608;1.458;2022-10-22T12:07:51;12.43;;;3.08;;
49722;SDS011;43484;43.608;1.458;2022-10-22T12:10:26;14.82;;;2.65;;
49722;SDS011;43484;43.608;1.458;2022-10-22T12:13:01;18.15;;;4.03;;
49722;SDS011;43484;43.608;1.458;2022-10-22T12:15:46;14.40;;;2.65;;
49722;SDS011;43484;43.608;1.458;2022-10-22T12:18:14;12.25;;;3.08;;
49722;SDS011;43484;43.608;1.458;2022-10-22T12:20:41;10.90;;;2.60;;
49722;SDS011;43484;43.608;1.458;2022-10-22T12:23:09;10.32;;;2.47;;
49722;SDS011;43484;43.608;1.458;2022-10-22T12:25:38;14.48;;;2.63;;
49722;SDS011;43484;43.608;1.458;2022-10-22T12:28:08;19.13;;;3.10;;
49722;SDS011;43484;43.608;1.458;2022-10-22T12:30:37;10.93;;;2.95;;
49722;SDS011;43484;43.608;1.458;2022-10-22T12:33:05;17.83;;;3.45;;
49722;SDS011;43484;43.608;1.458;2022-10-22T12:35:34;9.95;;;2.65;;
49722;SDS011;43484;43.608;1.458;2022-10-22T12:38:15;11.00;;;2.88;;
49722;SDS011;43484;43.608;1.458;2022-10-22T12:40:45;14.98;;;2.55;;
49722;SDS011;43484;43.608;1.458;2022-10-22T12:43:18;18.75;;;2.80;;
49722;SDS011;43484;43.608;1.458;2022-10-22T12:45:49;14.88;;;2.97;;
49722;SDS011;43484;43.608;1.458;2022-10-22T12:48:26;9.25;;;2.47;;
49722;SDS011;43484;43.608;1.458;2022-10-22T12:50:57;11.70;;;2.80;;
49722;SDS011;43484;43.608;1.458;2022-10-22T12:53:26;7.50;;;1.88;;
49722;SDS011;43484;43.608;1.458;2022-10-22T12:56:01;9.10;;;2.25;;
49722;SDS011;43484;43.608;1.458;2022-10-22T12:58:35;10.02;;;2.30;;
49722;SDS011;43484;43.608;1.458;2022-10-22T13:01:06;15.23;;;2.25;;
49722;SDS011;43484;43.608;1.458;2022-10-22T13:03:44;9.63;;;2.08;;
49722;SDS011;43484;43.608;1.458;2022-10-22T13:11:39;13.82;;;2.05;;
49722;SDS011;43484;43.608;1.458;2022-10-22T13:14:18;8.25;;;1.75;;
49722;SDS011;43484;43.608;1.458;2022-10-22T13:24:52;11.00;;;2.15;;
49722;SDS011;43484;43.608;1.458;2022-10-22T13:27:26;9.07;;;1.60;;
49722;SDS011;43484;43.608;1.458;2022-10-22T13:29:54;9.45;;;2.17;;
49722;SDS011;43484;43.608;1.458;2022-10-22T13:32:31;12.00;;;2.08;;
49722;SDS011;43484;43.608;1.458;2022-10-22T13:35:02;8.32;;;1.98;;
49722;SDS011;43484;43.608;1.458;2022-10-22T13:37:30;10.18;;;2.50;;
49722;SDS011;43484;43.608;1.458;2022-10-22T13:39:59;10.52;;;2.05;;
49722;SDS011;43484;43.608;1.458;2022-10-22T13:42:25;7.60;;;2.33;;
49722;SDS011;43484;43.608;1.458;2022-10-22T13:44:52;7.80;;;1.90;;
49722;SDS011;43484;43.608;1.458;2022-10-22T13:47:22;7.05;;;1.75;;
49722;SDS011;43484;43.608;1.458;2022-10-22T13:49:52;6.90;;;1.30;;
49722;SDS011;43484;43.608;1.458;2022-10-22T13:54:54;10.10;;;1.80;;
49722;SDS011;43484;43.608;1.458;2022-10-22T13:57:21;9.00;;;1.85;;
49722;SDS011;43484;43.608;1.458;2022-10-22T13:59:48;9.13;;;1.50;;
49722;SDS011;43484;43.608;1.458;2022-10-22T14:02:14;7.20;;;1.35;;
49722;SDS011;43484;43.608;1.458;2022-10-22T14:04:42;9.73;;;1.92;;
49722;SDS011;43484;43.608;1.458;2022-10-22T14:07:13;10.30;;;1.83;;
49722;SDS011;43484;43.608;1.458;2022-10-22T14:09:41;7.43;;;1.42;;
49722;SDS011;43484;43.608;1.458;2022-10-22T14:12:10;7.15;;;1.60;;
49722;SDS011;43484;43.608;1.458;2022-10-22T14:14:41;8.50;;;1.40;;
49722;SDS011;43484;43.608;1.458;2022-10-22T14:17:10;8.07;;;1.25;;
49722;SDS011;43484;43.608;1.458;2022-10-22T14:19:42;7.72;;;1.65;;
49722;SDS011;43484;43.608;1.458;2022-10-22T14:22:15;3.92;;;1.33;;
49722;SDS011;43484;43.608;1.458;2022-10-22T14:24:43;10.23;;;1.83;;
49722;SDS011;43484;43.608;1.458;2022-10-22T14:27:11;8.90;;;1.75;;
49722;SDS011;43484;43.608;1.458;2022-10-22T14:29:39;5.75;;;1.70;;
49722;SDS011;43484;43.608;1.458;2022-10-22T14:32:13;5.72;;;1.10;;
49722;SDS011;43484;43.608;1.458;2022-10-22T14:34:42;10.18;;;1.30;;
49722;SDS011;43484;43.608;1.458;2022-10-22T14:37:15;8.93;;;1.70;;
49722;SDS011;43484;43.608;1.458;2022-10-22T14:39:44;7.75;;;1.73;;
49722;SDS011;43484;43.608;1.458;2022-10-22T14:42:17;8.05;;;1.73;;
49722;SDS011;43484;43.608;1.458;2022-10-22T14:44:45;8.13;;;1.52;;
49722;SDS011;43484;43.608;1.458;2022-10-22T14:47:12;13.00;;;1.70;;
49722;SDS011;43484;43.608;1.458;2022-10-22T14:49:38;9.88;;;1.83;;
49722;SDS011;43484;43.608;1.458;2022-10-22T14:52:05;8.63;;;2.10;;
49722;SDS011;43484;43.608;1.458;2022-10-22T14:54:36;8.48;;;2.53;;
49722;SDS011;43484;43.608;1.458;2022-10-22T14:57:03;14.07;;;1.95;;
49722;SDS011;43484;43.608;1.458;2022-10-22T14:59:30;8.77;;;1.92;;
49722;SDS011;43484;43.608;1.458;2022-10-22T15:01:57;6.60;;;2.17;;
49722;SDS011;43484;43.608;1.458;2022-10-22T15:04:23;14.18;;;2.80;;
49722;SDS011;43484;43.608;1.458;2022-10-22T15:06:52;11.18;;;2.30;;
49722;SDS011;43484;43.608;1.458;2022-10-22T15:09:22;8.77;;;2.35;;
49722;SDS011;43484;43.608;1.458;2022-10-22T15:11:50;10.32;;;2.17;;
49722;SDS011;43484;43.608;1.458;2022-10-22T15:14:16;8.02;;;2.00;;
49722;SDS011;43484;43.608;1.458;2022-10-22T15:16:43;12.18;;;2.15;;
49722;SDS011;43484;43.608;1.458;2022-10-22T15:19:10;9.38;;;2.10;;
49722;SDS011;43484;43.608;1.458;2022-10-22T15:21:37;9.00;;;2.00;;
49722;SDS011;43484;43.608;1.458;2022-10-22T15:24:04;7.47;;;1.98;;
49722;SDS011;43484;43.608;1.458;2022-10-22T15:26:31;9.68;;;2.30;;
49722;SDS011;43484;43.608;1.458;2022-10-22T15:28:57;11.85;;;2.20;;
49722;SDS011;43484;43.608;1.458;2022-10-22T15:31:41;13.40;;;2.10;;
49722;SDS011;43484;43.608;1.458;2022-10-22T15:34:08;11.45;;;2.47;;
49722;SDS011;43484;43.608;1.458;2022-10-22T15:36:34;10.77;;;2.00;;
49722;SDS011;43484;43.608;1.458;2022-10-22T15:39:05;7.53;;;2.00;;
49722;SDS011;43484;43.608;1.458;2022-10-22T15:41:33;11.20;;;2.25;;
49722;SDS011;43484;43.608;1.458;2022-10-22T15:43:59;10.73;;;3.08;;
49722;SDS011;43484;43.608;1.458;2022-10-22T15:46:26;15.15;;;3.20;;
49722;SDS011;43484;43.608;1.458;2022-10-22T15:49:00;18.15;;;3.50;;
49722;SDS011;43484;43.608;1.458;2022-10-22T15:51:27;11.02;;;2.70;;
49722;SDS011;43484;43.608;1.458;2022-10-22T15:53:54;16.05;;;2.75;;
49722;SDS011;43484;43.608;1.458;2022-10-22T15:56:23;10.93;;;3.03;;
49722;SDS011;43484;43.608;1.458;2022-10-22T15:58:55;16.52;;;3.83;;
49722;SDS011;43484;43.608;1.458;2022-10-22T16:01:23;11.60;;;3.25;;
49722;SDS011;43484;43.608;1.458;2022-10-22T16:03:52;17.58;;;3.72;;
49722;SDS011;43484;43.608;1.458;2022-10-22T16:06:25;12.82;;;3.65;;
49722;SDS011;43484;43.608;1.458;2022-10-22T16:08:53;10.48;;;3.28;;
49722;SDS011;43484;43.608;1.458;2022-10-22T16:11:22;18.42;;;3.45;;
49722;SDS011;43484;43.608;1.458;2022-10-22T16:13:53;14.63;;;3.55;;
49722;SDS011;43484;43.608;1.458;2022-10-22T16:16:22;21.50;;;3.50;;
49722;SDS011;43484;43.608;1.458;2022-10-22T16:18:51;16.13;;;4.00;;
49722;SDS011;43484;43.608;1.458;2022-10-22T16:21:18;14.13;;;3.05;;
49722;SDS011;43484;43.608;1.458;2022-10-22T16:23:46;10.18;;;3.13;;
49722;SDS011;43484;43.608;1.458;2022-10-22T16:26:13;13.80;;;3.63;;
49722;SDS011;43484;43.608;1.458;2022-10-22T16:28:41;15.52;;;3.33;;
49722;SDS011;43484;43.608;1.458;2022-10-22T16:31:09;14.35;;;3.22;;
49722;SDS011;43484;43.608;1.458;2022-10-22T16:33:38;10.65;;;3.53;;
49722;SDS011;43484;43.608;1.458;2022-10-22T16:36:15;15.13;;;3.88;;
49722;SDS011;43484;43.608;1.458;2022-10-22T16:38:44;22.58;;;3.40;;
49722;SDS011;43484;43.608;1.458;2022-10-22T16:43:41;17.17;;;3.83;;
49722;SDS011;43484;43.608;1.458;2022-10-22T16:46:08;13.73;;;4.22;;
49722;SDS011;43484;43.608;1.458;2022-10-22T16:48:35;17.15;;;4.07;;
49722;SDS011;43484;43.608;1.458;2022-10-22T16:51:08;18.25;;;4.75;;
49722;SDS011;43484;43.608;1.458;2022-10-22T16:53:36;15.23;;;4.65;;
49722;SDS011;43484;43.608;1.458;2022-10-22T16:56:02;14.05;;;3.90;;
49722;SDS011;43484;43.608;1.458;2022-10-22T16:58:29;15.65;;;4.50;;
49722;SDS011;43484;43.608;1.458;2022-10-22T17:00:56;17.63;;;4.10;;
49722;SDS011;43484;43.608;1.458;2022-10-22T17:03:22;10.70;;;3.58;;
49722;SDS011;43484;43.608;1.458;2022-10-22T17:05:56;16.17;;;3.95;;
49722;SDS011;43484;43.608;1.458;2022-10-22T17:08:23;13.82;;;4.60;;
49722;SDS011;43484;43.608;1.458;2022-10-22T17:10:50;17.38;;;4.60;;